sensor_id;sensor_type;location;lat;lon;timestamp;pressure;altitude;pressure_sealevel;temperature;humidity
56042;BME280;48756;41.374;2.066;2024-01-27T00:01:44;102466.88;;;13.36;77.75
56042;BME280;48756;41.374;2.066;2024-01-27T00:04:09;102468.53;;;13.23;78.51
56042;BME280;48756;41.374;2.066;2024-01-27T00:06:35;102465.09;;;13.33;76.91
56042;BME280;48756;41.374;2.066;2024-01-27T00:09:00;102466.91;;;13.42;76.89
56042;BME280;48756;41.374;2.066;2024-01-27T00:11:26;102459.09;;;13.48;76.95
56042;BME280;48756;41.374;2.066;2024-01-27T00:13:51;102465.19;;;13.45;77.46
56042;BME280;48756;41.374;2.066;2024-01-27T00:16:19;102466.00;;;13.35;76.96
56042;BME280;48756;41.374;2.066;2024-01-27T00:18:45;102459.84;;;13.29;77.73
56042;BME280;48756;41.374;2.066;2024-01-27T00:21:11;102467.72;;;13.33;77.17
56042;BME280;48756;41.374;2.066;2024-01-27T00:23:36;102465.09;;;13.35;77.48
56042;BME280;48756;41.374;2.066;2024-01-27T00:26:02;102463.94;;;12.96;78.34
56042;BME280;48756;41.374;2.066;2024-01-27T00:28:30;102464.63;;;12.78;80.13
56042;BME280;48756;41.374;2.066;2024-01-27T00:30:55;102469.06;;;12.85;79.01
56042;BME280;48756;41.374;2.066;2024-01-27T00:33:23;102465.66;;;12.96;79.59
56042;BME280;48756;41.374;2.066;2024-01-27T00:35:49;102462.88;;;12.76;78.07
56042;BME280;48756;41.374;2.066;2024-01-27T00:38:14;102451.56;;;12.81;79.15
56042;BME280;48756;41.374;2.066;2024-01-27T00:40:40;102455.91;;;12.78;79.71
56042;BME280;48756;41.374;2.066;2024-01-27T00:43:06;102453.16;;;12.66;78.98
56042;BME280;48756;41.374;2.066;2024-01-27T00:45:32;102452.31;;;12.67;78.82
56042;BME280;48756;41.374;2.066;2024-01-27T00:47:57;102448.06;;;12.79;79.59
56042;BME280;48756;41.374;2.066;2024-01-27T00:50:25;102438.28;;;12.57;80.49
56042;BME280;48756;41.374;2.066;2024-01-27T00:52:53;102439.19;;;12.61;80.89
56042;BME280;48756;41.374;2.066;2024-01-27T00:55:19;102435.72;;;12.63;79.98
56042;BME280;48756;41.374;2.066;2024-01-27T00:57:44;102426.09;;;12.59;79.91
56042;BME280;48756;41.374;2.066;2024-01-27T01:00:12;102429.63;;;12.64;80.98
56042;BME280;48756;41.374;2.066;2024-01-27T01:02:38;102433.31;;;12.89;79.51
56042;BME280;48756;41.374;2.066;2024-01-27T01:05:04;102428.97;;;12.89;78.93
56042;BME280;48756;41.374;2.066;2024-01-27T01:07:33;102421.97;;;12.87;79.32
56042;BME280;48756;41.374;2.066;2024-01-27T01:09:58;102426.44;;;12.97;78.32
56042;BME280;48756;41.374;2.066;2024-01-27T01:12:24;102419.66;;;13.21;77.24
56042;BME280;48756;41.374;2.066;2024-01-27T01:14:52;102421.38;;;13.18;77.69
56042;BME280;48756;41.374;2.066;2024-01-27T01:17:18;102421.34;;;13.17;77.86
56042;BME280;48756;41.374;2.066;2024-01-27T01:19:44;102416.03;;;13.11;78.22
56042;BME280;48756;41.374;2.066;2024-01-27T01:22:10;102420.31;;;12.97;78.20
56042;BME280;48756;41.374;2.066;2024-01-27T01:24:37;102423.88;;;13.08;78.01
56042;BME280;48756;41.374;2.066;2024-01-27T01:27:03;102424.75;;;13.11;77.45
56042;BME280;48756;41.374;2.066;2024-01-27T01:29:29;102422.19;;;13.13;77.80
56042;BME280;48756;41.374;2.066;2024-01-27T01:31:57;102424.69;;;12.96;77.65
56042;BME280;48756;41.374;2.066;2024-01-27T01:34:22;102419.44;;;12.95;77.52
56042;BME280;48756;41.374;2.066;2024-01-27T01:36:51;102421.09;;;12.88;77.57
56042;BME280;48756;41.374;2.066;2024-01-27T01:39:16;102422.91;;;12.92;77.85
56042;BME280;48756;41.374;2.066;2024-01-27T01:41:42;102428.03;;;12.81;77.89
56042;BME280;48756;41.374;2.066;2024-01-27T01:44:07;102430.69;;;12.86;77.95
56042;BME280;48756;41.374;2.066;2024-01-27T01:46:33;102434.16;;;12.83;78.55
56042;BME280;48756;41.374;2.066;2024-01-27T01:49:01;102427.19;;;12.84;78.70
56042;BME280;48756;41.374;2.066;2024-01-27T01:51:30;102427.16;;;12.82;77.91
56042;BME280;48756;41.374;2.066;2024-01-27T01:53:58;102424.59;;;12.88;78.42
56042;BME280;48756;41.374;2.066;2024-01-27T01:56:31;102424.56;;;12.82;77.47
56042;BME280;48756;41.374;2.066;2024-01-27T01:58:57;102422.81;;;12.81;78.16
56042;BME280;48756;41.374;2.066;2024-01-27T02:01:22;102417.50;;;12.71;78.26
56042;BME280;48756;41.374;2.066;2024-01-27T02:03:54;102411.31;;;12.66;79.28
56042;BME280;48756;41.374;2.066;2024-01-27T02:06:20;102410.38;;;12.56;78.79
56042;BME280;48756;41.374;2.066;2024-01-27T02:08:45;102416.44;;;12.50;78.82
56042;BME280;48756;41.374;2.066;2024-01-27T02:11:11;102419.75;;;12.33;78.94
56042;BME280;48756;41.374;2.066;2024-01-27T02:13:36;102414.69;;;12.49;78.71
56042;BME280;48756;41.374;2.066;2024-01-27T02:16:02;102411.28;;;12.61;77.95
56042;BME280;48756;41.374;2.066;2024-01-27T02:18:27;102409.44;;;12.48;79.19
56042;BME280;48756;41.374;2.066;2024-01-27T02:20:53;102418.19;;;12.53;77.92
56042;BME280;48756;41.374;2.066;2024-01-27T02:23:18;102419.13;;;12.58;78.22
56042;BME280;48756;41.374;2.066;2024-01-27T02:25:44;102425.25;;;12.62;77.87
56042;BME280;48756;41.374;2.066;2024-01-27T02:28:09;102419.09;;;12.56;77.93
56042;BME280;48756;41.374;2.066;2024-01-27T02:30:35;102423.31;;;12.42;78.45
56042;BME280;48756;41.374;2.066;2024-01-27T02:33:03;102413.66;;;12.35;77.70
56042;BME280;48756;41.374;2.066;2024-01-27T02:35:28;102414.59;;;12.43;75.86
56042;BME280;48756;41.374;2.066;2024-01-27T02:37:54;102409.34;;;12.39;77.17
56042;BME280;48756;41.374;2.066;2024-01-27T02:40:19;102405.22;;;12.64;77.21
56042;BME280;48756;41.374;2.066;2024-01-27T02:42:45;102413.72;;;12.43;77.91
56042;BME280;48756;41.374;2.066;2024-01-27T02:45:10;102405.16;;;12.59;76.37
56042;BME280;48756;41.374;2.066;2024-01-27T02:47:37;102406.91;;;12.57;76.31
56042;BME280;48756;41.374;2.066;2024-01-27T02:50:02;102405.13;;;12.51;76.09
56042;BME280;48756;41.374;2.066;2024-01-27T02:52:32;102406.81;;;12.46;75.52
56042;BME280;48756;41.374;2.066;2024-01-27T02:54:57;102403.91;;;12.19;76.60
56042;BME280;48756;41.374;2.066;2024-01-27T02:57:23;102404.84;;;12.22;76.37
56042;BME280;48756;41.374;2.066;2024-01-27T02:59:48;102411.06;;;12.37;75.49
56042;BME280;48756;41.374;2.066;2024-01-27T03:02:15;102409.41;;;12.45;75.79
56042;BME280;48756;41.374;2.066;2024-01-27T03:04:43;102400.72;;;12.46;74.94
56042;BME280;48756;41.374;2.066;2024-01-27T03:07:09;102404.88;;;12.27;76.07
56042;BME280;48756;41.374;2.066;2024-01-27T03:09:35;102404.09;;;12.39;75.75
56042;BME280;48756;41.374;2.066;2024-01-27T03:12:00;102401.53;;;12.43;75.35
56042;BME280;48756;41.374;2.066;2024-01-27T03:14:26;102410.88;;;12.18;75.58
56042;BME280;48756;41.374;2.066;2024-01-27T03:16:52;102406.66;;;12.30;76.00
56042;BME280;48756;41.374;2.066;2024-01-27T03:19:17;102407.69;;;12.47;75.68
56042;BME280;48756;41.374;2.066;2024-01-27T03:21:43;102413.88;;;12.56;74.79
56042;BME280;48756;41.374;2.066;2024-01-27T03:24:08;102405.09;;;12.47;75.04
56042;BME280;48756;41.374;2.066;2024-01-27T03:26:34;102406.81;;;12.45;75.65
56042;BME280;48756;41.374;2.066;2024-01-27T03:28:59;102407.69;;;12.47;74.34
56042;BME280;48756;41.374;2.066;2024-01-27T03:31:32;102400.56;;;12.31;75.31
56042;BME280;48756;41.374;2.066;2024-01-27T03:34:01;102407.38;;;12.16;75.49
56042;BME280;48756;41.374;2.066;2024-01-27T03:36:27;102408.41;;;12.34;74.79
56042;BME280;48756;41.374;2.066;2024-01-27T03:38:53;102403.09;;;12.23;74.11
56042;BME280;48756;41.374;2.066;2024-01-27T03:41:19;102396.22;;;12.33;74.27
56042;BME280;48756;41.374;2.066;2024-01-27T03:43:44;102404.72;;;12.13;74.86
56042;BME280;48756;41.374;2.066;2024-01-27T03:46:12;102404.59;;;12.00;74.93
56042;BME280;48756;41.374;2.066;2024-01-27T03:48:37;102404.63;;;12.04;75.93
56042;BME280;48756;41.374;2.066;2024-01-27T03:51:03;102401.91;;;11.95;75.59
56042;BME280;48756;41.374;2.066;2024-01-27T03:53:29;102406.25;;;11.94;75.74
56042;BME280;48756;41.374;2.066;2024-01-27T03:55:56;102399.44;;;12.07;74.73
56042;BME280;48756;41.374;2.066;2024-01-27T03:58:27;102392.34;;;11.99;74.73
56042;BME280;48756;41.374;2.066;2024-01-27T04:00:53;102391.66;;;12.15;74.21
56042;BME280;48756;41.374;2.066;2024-01-27T04:03:18;102387.03;;;11.88;73.89
56042;BME280;48756;41.374;2.066;2024-01-27T04:05:44;102389.44;;;11.76;75.64
56042;BME280;48756;41.374;2.066;2024-01-27T04:08:10;102387.84;;;11.84;75.11
56042;BME280;48756;41.374;2.066;2024-01-27T04:10:36;102387.91;;;11.88;74.76
56042;BME280;48756;41.374;2.066;2024-01-27T04:13:02;102394.03;;;11.93;74.15
56042;BME280;48756;41.374;2.066;2024-01-27T04:15:28;102385.34;;;11.94;74.77
56042;BME280;48756;41.374;2.066;2024-01-27T04:17:53;102396.56;;;11.86;74.63
56042;BME280;48756;41.374;2.066;2024-01-27T04:20:19;102388.66;;;11.78;75.07
56042;BME280;48756;41.374;2.066;2024-01-27T04:22:45;102383.47;;;11.80;75.73
56042;BME280;48756;41.374;2.066;2024-01-27T04:25:13;102384.34;;;11.82;74.38
56042;BME280;48756;41.374;2.066;2024-01-27T04:27:39;102382.63;;;11.84;73.78
56042;BME280;48756;41.374;2.066;2024-01-27T04:30:16;102376.38;;;11.76;75.65
56042;BME280;48756;41.374;2.066;2024-01-27T04:32:42;102377.50;;;11.93;75.04
56042;BME280;48756;41.374;2.066;2024-01-27T04:35:11;102378.28;;;11.84;74.00
56042;BME280;48756;41.374;2.066;2024-01-27T04:37:37;102371.50;;;12.00;73.30
56042;BME280;48756;41.374;2.066;2024-01-27T04:40:05;102374.13;;;12.02;73.64
56042;BME280;48756;41.374;2.066;2024-01-27T04:42:37;102368.94;;;12.05;72.87
56042;BME280;48756;41.374;2.066;2024-01-27T04:45:04;102364.94;;;11.64;73.52
56042;BME280;48756;41.374;2.066;2024-01-27T04:47:30;102365.91;;;11.73;75.26
56042;BME280;48756;41.374;2.066;2024-01-27T04:49:55;102365.53;;;11.42;75.66
56042;BME280;48756;41.374;2.066;2024-01-27T04:52:22;102364.91;;;11.61;75.28
56042;BME280;48756;41.374;2.066;2024-01-27T04:54:48;102366.47;;;11.47;74.89
56042;BME280;48756;41.374;2.066;2024-01-27T04:57:14;102363.16;;;11.59;75.10
56042;BME280;48756;41.374;2.066;2024-01-27T04:59:39;102363.28;;;11.73;74.07
56042;BME280;48756;41.374;2.066;2024-01-27T05:02:05;102366.66;;;11.62;73.59
56042;BME280;48756;41.374;2.066;2024-01-27T05:04:31;102356.53;;;11.87;72.96
56042;BME280;48756;41.374;2.066;2024-01-27T05:06:56;102355.72;;;11.92;71.67
56042;BME280;48756;41.374;2.066;2024-01-27T05:09:22;102357.44;;;11.89;71.53
56042;BME280;48756;41.374;2.066;2024-01-27T05:11:48;102355.91;;;12.09;70.91
56042;BME280;48756;41.374;2.066;2024-01-27T05:14:16;102355.03;;;12.07;69.92
56042;BME280;48756;41.374;2.066;2024-01-27T05:16:42;102356.41;;;11.78;71.86
56042;BME280;48756;41.374;2.066;2024-01-27T05:19:07;102353.97;;;11.91;71.64
56042;BME280;48756;41.374;2.066;2024-01-27T05:21:33;102368.88;;;12.00;71.47
56042;BME280;48756;41.374;2.066;2024-01-27T05:23:59;102368.72;;;11.85;72.76
56042;BME280;48756;41.374;2.066;2024-01-27T05:26:24;102365.84;;;11.68;72.54
56042;BME280;48756;41.374;2.066;2024-01-27T05:28:50;102363.84;;;12.21;70.43
56042;BME280;48756;41.374;2.066;2024-01-27T05:31:15;102365.34;;;11.98;70.07
56042;BME280;48756;41.374;2.066;2024-01-27T05:33:43;102360.47;;;12.32;69.78
56042;BME280;48756;41.374;2.066;2024-01-27T05:36:08;102363.75;;;12.11;71.21
56042;BME280;48756;41.374;2.066;2024-01-27T05:38:34;102363.56;;;11.92;70.73
56042;BME280;48756;41.374;2.066;2024-01-27T05:41:03;102364.53;;;12.01;71.12
56042;BME280;48756;41.374;2.066;2024-01-27T05:43:31;102376.28;;;11.66;72.16
56042;BME280;48756;41.374;2.066;2024-01-27T05:45:57;102375.66;;;11.83;72.18
56042;BME280;48756;41.374;2.066;2024-01-27T05:48:22;102367.09;;;11.99;71.78
56042;BME280;48756;41.374;2.066;2024-01-27T05:50:57;102372.41;;;12.04;71.16
56042;BME280;48756;41.374;2.066;2024-01-27T05:53:26;102370.75;;;12.15;69.77
56042;BME280;48756;41.374;2.066;2024-01-27T05:55:52;102374.19;;;12.08;68.70
56042;BME280;48756;41.374;2.066;2024-01-27T05:58:22;102373.63;;;12.42;67.59
56042;BME280;48756;41.374;2.066;2024-01-27T06:00:48;102367.63;;;12.48;66.10
56042;BME280;48756;41.374;2.066;2024-01-27T06:03:14;102373.69;;;12.45;67.00
56042;BME280;48756;41.374;2.066;2024-01-27T06:05:41;102375.31;;;12.33;66.64
56042;BME280;48756;41.374;2.066;2024-01-27T06:08:07;102375.31;;;12.36;68.30
56042;BME280;48756;41.374;2.066;2024-01-27T06:10:33;102382.34;;;12.43;67.55
56042;BME280;48756;41.374;2.066;2024-01-27T06:12:59;102384.91;;;12.35;66.28
56042;BME280;48756;41.374;2.066;2024-01-27T06:15:24;102382.22;;;12.26;65.24
56042;BME280;48756;41.374;2.066;2024-01-27T06:17:50;102385.97;;;12.57;64.89
56042;BME280;48756;41.374;2.066;2024-01-27T06:20:18;102386.72;;;12.42;65.54
56042;BME280;48756;41.374;2.066;2024-01-27T06:22:44;102390.31;;;12.53;64.03
56042;BME280;48756;41.374;2.066;2024-01-27T06:25:09;102392.97;;;12.61;65.26
56042;BME280;48756;41.374;2.066;2024-01-27T06:27:35;102405.28;;;12.68;64.14
56042;BME280;48756;41.374;2.066;2024-01-27T06:30:01;102391.94;;;12.44;65.71
56042;BME280;48756;41.374;2.066;2024-01-27T06:32:29;102399.91;;;12.54;64.51
56042;BME280;48756;41.374;2.066;2024-01-27T06:34:54;102400.59;;;12.37;64.99
56042;BME280;48756;41.374;2.066;2024-01-27T06:37:20;102411.91;;;12.33;65.64
56042;BME280;48756;41.374;2.066;2024-01-27T06:39:45;102409.22;;;12.26;64.58
56042;BME280;48756;41.374;2.066;2024-01-27T06:42:11;102414.56;;;12.37;65.39
56042;BME280;48756;41.374;2.066;2024-01-27T06:44:36;102415.34;;;12.30;65.10
56042;BME280;48756;41.374;2.066;2024-01-27T06:47:02;102414.59;;;12.42;64.77
56042;BME280;48756;41.374;2.066;2024-01-27T06:49:30;102410.31;;;12.48;63.88
56042;BME280;48756;41.374;2.066;2024-01-27T06:51:55;102417.94;;;12.25;64.88
56042;BME280;48756;41.374;2.066;2024-01-27T06:54:21;102419.69;;;12.26;66.85
56042;BME280;48756;41.374;2.066;2024-01-27T06:56:49;102429.16;;;12.20;65.15
56042;BME280;48756;41.374;2.066;2024-01-27T06:59:14;102431.94;;;12.32;66.18
56042;BME280;48756;41.374;2.066;2024-01-27T07:01:48;102433.72;;;12.38;64.53
56042;BME280;48756;41.374;2.066;2024-01-27T07:04:14;102428.59;;;12.47;65.62
56042;BME280;48756;41.374;2.066;2024-01-27T07:06:40;102432.13;;;12.49;65.97
56042;BME280;48756;41.374;2.066;2024-01-27T07:09:05;102431.25;;;12.48;66.48
56042;BME280;48756;41.374;2.066;2024-01-27T07:11:32;102425.75;;;12.24;64.44
56042;BME280;48756;41.374;2.066;2024-01-27T07:13:58;102446.72;;;12.29;64.86
56042;BME280;48756;41.374;2.066;2024-01-27T07:16:24;102436.38;;;12.41;65.07
56042;BME280;48756;41.374;2.066;2024-01-27T07:18:50;102441.63;;;12.44;64.25
56042;BME280;48756;41.374;2.066;2024-01-27T07:21:18;102445.16;;;12.46;65.75
56042;BME280;48756;41.374;2.066;2024-01-27T07:23:44;102445.78;;;12.23;64.93
56042;BME280;48756;41.374;2.066;2024-01-27T07:26:11;102444.78;;;12.12;65.10
56042;BME280;48756;41.374;2.066;2024-01-27T07:28:39;102448.56;;;11.69;66.90
56042;BME280;48756;41.374;2.066;2024-01-27T07:31:07;102440.81;;;11.77;66.10
56042;BME280;48756;41.374;2.066;2024-01-27T07:33:33;102449.72;;;11.89;65.73
56042;BME280;48756;41.374;2.066;2024-01-27T07:35:58;102458.19;;;11.73;66.58
56042;BME280;48756;41.374;2.066;2024-01-27T07:38:29;102455.03;;;11.97;66.59
56042;BME280;48756;41.374;2.066;2024-01-27T07:40:55;102452.41;;;11.95;65.44
56042;BME280;48756;41.374;2.066;2024-01-27T07:43:20;102449.91;;;12.02;64.68
56042;BME280;48756;41.374;2.066;2024-01-27T07:45:46;102450.94;;;12.17;65.44
56042;BME280;48756;41.374;2.066;2024-01-27T07:48:11;102446.38;;;12.00;66.01
56042;BME280;48756;41.374;2.066;2024-01-27T07:50:37;102458.63;;;12.04;66.53
56042;BME280;48756;41.374;2.066;2024-01-27T07:53:03;102459.63;;;12.15;65.48
56042;BME280;48756;41.374;2.066;2024-01-27T07:55:29;102463.03;;;12.09;65.80
56042;BME280;48756;41.374;2.066;2024-01-27T07:57:54;102459.63;;;12.18;66.60
56042;BME280;48756;41.374;2.066;2024-01-27T08:00:20;102464.16;;;12.30;65.20
56042;BME280;48756;41.374;2.066;2024-01-27T08:02:45;102460.50;;;12.15;65.58
56042;BME280;48756;41.374;2.066;2024-01-27T08:05:11;102467.69;;;12.35;64.51
56042;BME280;48756;41.374;2.066;2024-01-27T08:07:36;102470.34;;;12.41;65.14
56042;BME280;48756;41.374;2.066;2024-01-27T08:10:02;102465.47;;;12.73;63.48
56042;BME280;48756;41.374;2.066;2024-01-27T08:12:29;102469.31;;;13.16;61.38
56042;BME280;48756;41.374;2.066;2024-01-27T08:14:55;102473.69;;;13.17;61.84
56042;BME280;48756;41.374;2.066;2024-01-27T08:17:20;102468.59;;;13.34;60.28
56042;BME280;48756;41.374;2.066;2024-01-27T08:19:46;102464.28;;;13.40;61.74
56042;BME280;48756;41.374;2.066;2024-01-27T08:22:14;102471.66;;;12.85;61.52
56042;BME280;48756;41.374;2.066;2024-01-27T08:24:39;102470.19;;;13.15;61.82
56042;BME280;48756;41.374;2.066;2024-01-27T08:27:05;102476.13;;;12.96;61.59
56042;BME280;48756;41.374;2.066;2024-01-27T08:29:30;102480.47;;;12.91;62.32
56042;BME280;48756;41.374;2.066;2024-01-27T08:31:58;102480.66;;;13.15;60.19
56042;BME280;48756;41.374;2.066;2024-01-27T08:34:29;102482.66;;;13.46;60.29
56042;BME280;48756;41.374;2.066;2024-01-27T08:37:01;102492.16;;;13.34;60.37
56042;BME280;48756;41.374;2.066;2024-01-27T08:39:27;102495.59;;;13.28;61.72
56042;BME280;48756;41.374;2.066;2024-01-27T08:41:52;102498.00;;;13.05;60.51
56042;BME280;48756;41.374;2.066;2024-01-27T08:44:20;102497.13;;;13.05;60.89
56042;BME280;48756;41.374;2.066;2024-01-27T08:46:46;102500.94;;;13.40;60.35
56042;BME280;48756;41.374;2.066;2024-01-27T08:49:11;102495.75;;;13.49;60.29
56042;BME280;48756;41.374;2.066;2024-01-27T08:51:37;102502.84;;;13.63;59.25
56042;BME280;48756;41.374;2.066;2024-01-27T08:54:05;102493.28;;;13.71;58.56
56042;BME280;48756;41.374;2.066;2024-01-27T08:56:33;102502.38;;;13.08;60.12
56042;BME280;48756;41.374;2.066;2024-01-27T08:58:58;102497.63;;;13.66;58.90
56042;BME280;48756;41.374;2.066;2024-01-27T09:01:24;102503.84;;;13.89;57.82
56042;BME280;48756;41.374;2.066;2024-01-27T09:03:49;102491.59;;;13.82;58.16
56042;BME280;48756;41.374;2.066;2024-01-27T09:06:15;102501.22;;;13.83;59.20
56042;BME280;48756;41.374;2.066;2024-01-27T09:08:41;102490.88;;;14.15;58.17
56042;BME280;48756;41.374;2.066;2024-01-27T09:11:07;102500.41;;;13.98;57.70
56042;BME280;48756;41.374;2.066;2024-01-27T09:13:34;102494.38;;;14.20;58.35
56042;BME280;48756;41.374;2.066;2024-01-27T09:16:00;102503.09;;;14.10;58.01
56042;BME280;48756;41.374;2.066;2024-01-27T09:18:26;102496.09;;;14.14;57.27
56042;BME280;48756;41.374;2.066;2024-01-27T09:20:52;102504.03;;;14.29;57.43
56042;BME280;48756;41.374;2.066;2024-01-27T09:23:18;102496.09;;;14.12;57.17
56042;BME280;48756;41.374;2.066;2024-01-27T09:25:43;102512.06;;;14.72;56.28
56042;BME280;48756;41.374;2.066;2024-01-27T09:28:09;102513.81;;;14.80;55.34
56042;BME280;48756;41.374;2.066;2024-01-27T09:30:35;102513.81;;;15.06;54.43
56042;BME280;48756;41.374;2.066;2024-01-27T09:33:00;102517.31;;;14.90;55.42
56042;BME280;48756;41.374;2.066;2024-01-27T09:35:26;102513.84;;;14.94;55.18
56042;BME280;48756;41.374;2.066;2024-01-27T09:37:51;102515.56;;;14.89;55.63
56042;BME280;48756;41.374;2.066;2024-01-27T09:40:17;102519.94;;;15.34;54.56
56042;BME280;48756;41.374;2.066;2024-01-27T09:42:53;102517.31;;;15.45;53.25
56042;BME280;48756;41.374;2.066;2024-01-27T09:45:22;102517.34;;;15.40;53.96
56042;BME280;48756;41.374;2.066;2024-01-27T09:47:48;102519.09;;;14.94;54.70
56042;BME280;48756;41.374;2.066;2024-01-27T09:50:14;102519.94;;;15.11;54.80
56042;BME280;48756;41.374;2.066;2024-01-27T09:52:42;102521.69;;;15.30;54.65
56042;BME280;48756;41.374;2.066;2024-01-27T09:55:08;102529.59;;;15.18;54.66
56042;BME280;48756;41.374;2.066;2024-01-27T09:57:34;102520.78;;;15.57;52.52
56042;BME280;48756;41.374;2.066;2024-01-27T10:00:04;102519.91;;;15.78;53.18
56042;BME280;48756;41.374;2.066;2024-01-27T10:02:33;102526.09;;;15.62;53.62
56042;BME280;48756;41.374;2.066;2024-01-27T10:05:01;102524.19;;;16.07;52.23
56042;BME280;48756;41.374;2.066;2024-01-27T10:07:27;102525.03;;;16.18;51.95
56042;BME280;48756;41.374;2.066;2024-01-27T10:09:55;102522.47;;;16.07;51.54
56042;BME280;48756;41.374;2.066;2024-01-27T10:12:22;102530.34;;;16.12;51.38
56042;BME280;48756;41.374;2.066;2024-01-27T10:14:52;102531.06;;;16.43;51.28
56042;BME280;48756;41.374;2.066;2024-01-27T10:17:22;102531.88;;;16.51;50.53
56042;BME280;48756;41.374;2.066;2024-01-27T10:19:59;102528.28;;;16.76;50.83
56042;BME280;48756;41.374;2.066;2024-01-27T10:22:26;102536.97;;;16.86;50.45
56042;BME280;48756;41.374;2.066;2024-01-27T10:24:55;102537.78;;;16.94;49.94
56042;BME280;48756;41.374;2.066;2024-01-27T10:27:21;102531.78;;;16.74;50.24
56042;BME280;48756;41.374;2.066;2024-01-27T10:29:53;102535.09;;;17.03;49.72
56042;BME280;48756;41.374;2.066;2024-01-27T10:32:20;102536.97;;;16.89;50.33
56042;BME280;48756;41.374;2.066;2024-01-27T10:34:49;102532.72;;;16.67;50.38
56042;BME280;48756;41.374;2.066;2024-01-27T10:37:23;102535.28;;;16.74;50.19
56042;BME280;48756;41.374;2.066;2024-01-27T10:39:49;102529.97;;;16.85;49.61
56042;BME280;48756;41.374;2.066;2024-01-27T10:42:15;102531.69;;;16.88;50.23
56042;BME280;48756;41.374;2.066;2024-01-27T10:44:43;102530.66;;;17.11;49.61
56042;BME280;48756;41.374;2.066;2024-01-27T10:47:12;102528.78;;;17.26;49.15
56042;BME280;48756;41.374;2.066;2024-01-27T10:49:43;102519.63;;;17.69;48.31
56042;BME280;48756;41.374;2.066;2024-01-27T10:52:14;102523.91;;;17.77;48.07
56042;BME280;48756;41.374;2.066;2024-01-27T10:54:45;102520.47;;;17.71;48.47
56042;BME280;48756;41.374;2.066;2024-01-27T10:57:11;102527.28;;;17.88;47.72
56042;BME280;48756;41.374;2.066;2024-01-27T10:59:39;102521.03;;;17.99;47.46
56042;BME280;48756;41.374;2.066;2024-01-27T11:02:11;102512.53;;;17.74;49.39
56042;BME280;48756;41.374;2.066;2024-01-27T11:04:41;102520.34;;;17.82;48.19
56042;BME280;48756;41.374;2.066;2024-01-27T11:07:07;102513.06;;;18.02;47.63
56042;BME280;48756;41.374;2.066;2024-01-27T11:09:37;102505.97;;;18.11;48.00
56042;BME280;48756;41.374;2.066;2024-01-27T11:12:05;102506.56;;;18.29;47.63
56042;BME280;48756;41.374;2.066;2024-01-27T11:14:31;102498.94;;;18.08;48.09
56042;BME280;48756;41.374;2.066;2024-01-27T11:16:56;102502.34;;;18.16;48.52
56042;BME280;48756;41.374;2.066;2024-01-27T11:19:23;102489.91;;;18.26;47.99
56042;BME280;48756;41.374;2.066;2024-01-27T11:21:48;102489.75;;;18.38;47.85
56042;BME280;48756;41.374;2.066;2024-01-27T11:24:26;102487.78;;;18.52;47.98
56042;BME280;48756;41.374;2.066;2024-01-27T11:27:04;102479.75;;;18.63;47.72
56042;BME280;48756;41.374;2.066;2024-01-27T11:29:30;102477.47;;;18.94;47.19
56042;BME280;48756;41.374;2.066;2024-01-27T11:32:01;102464.66;;;19.22;47.58
56042;BME280;48756;41.374;2.066;2024-01-27T11:34:45;102461.41;;;19.57;46.42
56042;BME280;48756;41.374;2.066;2024-01-27T11:37:15;102466.84;;;19.48;47.01
56042;BME280;48756;41.374;2.066;2024-01-27T11:39:40;102469.34;;;19.57;47.07
56042;BME280;48756;41.374;2.066;2024-01-27T11:42:08;102464.09;;;19.52;48.00
56042;BME280;48756;41.374;2.066;2024-01-27T11:44:40;102463.13;;;19.60;49.07
56042;BME280;48756;41.374;2.066;2024-01-27T11:47:15;102457.88;;;19.56;49.64
56042;BME280;48756;41.374;2.066;2024-01-27T11:49:43;102451.47;;;19.68;50.02
56042;BME280;48756;41.374;2.066;2024-01-27T11:52:11;102451.03;;;19.89;49.04
56042;BME280;48756;41.374;2.066;2024-01-27T11:54:36;102447.91;;;19.71;49.68
56042;BME280;48756;41.374;2.066;2024-01-27T11:57:03;102442.44;;;19.80;48.83
56042;BME280;48756;41.374;2.066;2024-01-27T11:59:29;102438.94;;;19.78;49.78
56042;BME280;48756;41.374;2.066;2024-01-27T12:01:55;102430.25;;;19.73;49.80
56042;BME280;48756;41.374;2.066;2024-01-27T12:04:20;102433.06;;;19.64;48.81
56042;BME280;48756;41.374;2.066;2024-01-27T12:06:47;102424.88;;;19.76;48.17
56042;BME280;48756;41.374;2.066;2024-01-27T12:09:12;102425.72;;;19.78;47.83
56042;BME280;48756;41.374;2.066;2024-01-27T12:11:41;102421.09;;;19.87;47.14
56042;BME280;48756;41.374;2.066;2024-01-27T12:14:07;102417.03;;;19.73;47.93
56042;BME280;48756;41.374;2.066;2024-01-27T12:16:32;102422.66;;;19.56;47.88
56042;BME280;48756;41.374;2.066;2024-01-27T12:18:58;102416.19;;;19.71;47.43
56042;BME280;48756;41.374;2.066;2024-01-27T12:21:25;102418.94;;;19.65;47.44
56042;BME280;48756;41.374;2.066;2024-01-27T12:23:53;102413.72;;;19.62;47.64
56042;BME280;48756;41.374;2.066;2024-01-27T12:26:25;102413.13;;;19.44;48.48
56042;BME280;48756;41.374;2.066;2024-01-27T12:28:50;102414.44;;;19.70;46.94
56042;BME280;48756;41.374;2.066;2024-01-27T12:31:16;102408.38;;;19.63;48.41
56042;BME280;48756;41.374;2.066;2024-01-27T12:33:50;102409.19;;;19.67;48.74
56042;BME280;48756;41.374;2.066;2024-01-27T12:36:18;102406.97;;;19.88;49.19
56042;BME280;48756;41.374;2.066;2024-01-27T12:38:57;102411.72;;;19.73;50.40
56042;BME280;48756;41.374;2.066;2024-01-27T12:41:24;102406.25;;;19.80;50.82
56042;BME280;48756;41.374;2.066;2024-01-27T12:43:53;102406.44;;;19.73;50.82
56042;BME280;48756;41.374;2.066;2024-01-27T12:46:19;102407.38;;;19.69;50.50
56042;BME280;48756;41.374;2.066;2024-01-27T12:48:45;102399.72;;;19.56;51.64